sensor_id;sensor_type;location;lat;lon;timestamp;temperature;humidity
4809;DHT22;2418;49.930;8.606;2022-12-18T00:01:32;-8.80;99.20
4809;DHT22;2418;49.930;8.606;2022-12-18T00:03:59;-8.80;99.20
4809;DHT22;2418;49.930;8.606;2022-12-18T00:06:27;-8.70;99.20
4809;DHT22;2418;49.930;8.606;2022-12-18T00:08:56;-8.80;99.20
4809;DHT22;2418;49.930;8.606;2022-12-18T00:11:23;-8.90;99.20
4809;DHT22;2418;49.930;8.606;2022-12-18T00:13:50;-8.90;99.20
4809;DHT22;2418;49.930;8.606;2022-12-18T00:16:22;-8.90;99.20
4809;DHT22;2418;49.930;8.606;2022-12-18T00:18:53;-9.00;99.20
4809;DHT22;2418;49.930;8.606;2022-12-18T00:21:19;-9.00;99.20
4809;DHT22;2418;49.930;8.606;2022-12-18T00:23:47;-9.10;99.20
4809;DHT22;2418;49.930;8.606;2022-12-18T00:26:17;-9.20;99.20
4809;DHT22;2418;49.930;8.606;2022-12-18T00:28:43;-9.20;99.20
4809;DHT22;2418;49.930;8.606;2022-12-18T00:31:14;-9.20;99.20
4809;DHT22;2418;49.930;8.606;2022-12-18T00:33:40;-9.20;99.20
4809;DHT22;2418;49.930;8.606;2022-12-18T00:36:11;-9.30;99.20
4809;DHT22;2418;49.930;8.606;2022-12-18T00:38:38;-9.30;99.20
4809;DHT22;2418;49.930;8.606;2022-12-18T00:41:04;-9.40;99.20
4809;DHT22;2418;49.930;8.606;2022-12-18T00:43:30;-9.40;99.20
4809;DHT22;2418;49.930;8.606;2022-12-18T00:45:55;-9.40;99.20
4809;DHT22;2418;49.930;8.606;2022-12-18T00:48:22;-9.40;99.20
4809;DHT22;2418;49.930;8.606;2022-12-18T00:50:49;-9.50;99.20
4809;DHT22;2418;49.930;8.606;2022-12-18T00:53:16;-9.50;99.20
4809;DHT22;2418;49.930;8.606;2022-12-18T00:55:43;-9.50;99.20
4809;DHT22;2418;49.930;8.606;2022-12-18T00:58:10;-9.50;99.20
4809;DHT22;2418;49.930;8.606;2022-12-18T01:00:36;-9.40;99.20
4809;DHT22;2418;49.930;8.606;2022-12-18T01:03:01;-9.30;99.20
4809;DHT22;2418;49.930;8.606;2022-12-18T01:05:27;-9.30;99.20
4809;DHT22;2418;49.930;8.606;2022-12-18T01:07:54;-9.40;99.20
4809;DHT22;2418;49.930;8.606;2022-12-18T01:10:20;-9.40;99.20
4809;DHT22;2418;49.930;8.606;2022-12-18T01:12:45;-9.40;99.20
4809;DHT22;2418;49.930;8.606;2022-12-18T01:15:13;-9.40;99.20
4809;DHT22;2418;49.930;8.606;2022-12-18T01:17:38;-9.50;99.20
4809;DHT22;2418;49.930;8.606;2022-12-18T01:20:04;-9.50;99.20
4809;DHT22;2418;49.930;8.606;2022-12-18T01:22:30;-9.40;99.20
4809;DHT22;2418;49.930;8.606;2022-12-18T01:24:56;-9.40;99.20
4809;DHT22;2418;49.930;8.606;2022-12-18T01:27:21;-9.50;99.20
4809;DHT22;2418;49.930;8.606;2022-12-18T01:29:47;-9.50;99.20
4809;DHT22;2418;49.930;8.606;2022-12-18T01:32:12;-9.60;99.20
4809;DHT22;2418;49.930;8.606;2022-12-18T01:34:38;-9.60;99.20
4809;DHT22;2418;49.930;8.606;2022-12-18T01:37:04;-9.50;99.20
4809;DHT22;2418;49.930;8.606;2022-12-18T01:39:31;-9.50;99.20
4809;DHT22;2418;49.930;8.606;2022-12-18T01:41:58;-9.50;99.20
4809;DHT22;2418;49.930;8.606;2022-12-18T01:48:07;-9.50;99.20
4809;DHT22;2418;49.930;8.606;2022-12-18T01:50:40;-9.50;99.20
4809;DHT22;2418;49.930;8.606;2022-12-18T01:53:07;-9.50;99.20
4809;DHT22;2418;49.930;8.606;2022-12-18T01:55:43;-9.40;99.20
4809;DHT22;2418;49.930;8.606;2022-12-18T01:58:10;-9.40;99.20
4809;DHT22;2418;49.930;8.606;2022-12-18T02:00:35;-9.40;99.20
4809;DHT22;2418;49.930;8.606;2022-12-18T02:03:01;-9.40;99.20
4809;DHT22;2418;49.930;8.606;2022-12-18T02:05:36;-9.40;99.20
4809;DHT22;2418;49.930;8.606;2022-12-18T02:16:27;-9.40;99.20
4809;DHT22;2418;49.930;8.606;2022-12-18T02:18:58;-9.40;99.20
4809;DHT22;2418;49.930;8.606;2022-12-18T02:21:45;-9.40;99.20
4809;DHT22;2418;49.930;8.606;2022-12-18T02:24:42;-9.50;99.20
4809;DHT22;2418;49.930;8.606;2022-12-18T02:27:10;-9.50;99.20
4809;DHT22;2418;49.930;8.606;2022-12-18T02:29:41;-9.50;99.20
4809;DHT22;2418;49.930;8.606;2022-12-18T02:32:35;-9.50;99.20
4809;DHT22;2418;49.930;8.606;2022-12-18T02:34:59;-9.50;99.20
4809;DHT22;2418;49.930;8.606;2022-12-18T02:37:28;-9.50;99.20
4809;DHT22;2418;49.930;8.606;2022-12-18T02:39:56;-9.50;99.20
4809;DHT22;2418;49.930;8.606;2022-12-18T02:42:23;-9.50;99.20
4809;DHT22;2418;49.930;8.606;2022-12-18T02:44:51;-9.40;99.20
4809;DHT22;2418;49.930;8.606;2022-12-18T02:47:22;-9.40;99.20
4809;DHT22;2418;49.930;8.606;2022-12-18T02:58:16;-9.40;99.20
4809;DHT22;2418;49.930;8.606;2022-12-18T03:00:53;-9.40;99.20
4809;DHT22;2418;49.930;8.606;2022-12-18T03:03:27;-9.40;99.20
4809;DHT22;2418;49.930;8.606;2022-12-18T03:06:04;-9.30;99.20
4809;DHT22;2418;49.930;8.606;2022-12-18T03:08:36;-9.30;99.20
4809;DHT22;2418;49.930;8.606;2022-12-18T03:11:06;-9.30;99.20
4809;DHT22;2418;49.930;8.606;2022-12-18T03:13:46;-9.30;99.20
4809;DHT22;2418;49.930;8.606;2022-12-18T03:16:17;-9.20;99.20
4809;DHT22;2418;49.930;8.606;2022-12-18T03:18:51;-9.20;99.20
4809;DHT22;2418;49.930;8.606;2022-12-18T03:21:22;-9.20;99.20
4809;DHT22;2418;49.930;8.606;2022-12-18T03:23:50;-9.20;99.20
4809;DHT22;2418;49.930;8.606;2022-12-18T03:26:21;-9.10;99.20
4809;DHT22;2418;49.930;8.606;2022-12-18T03:28:53;-9.10;99.20
4809;DHT22;2418;49.930;8.606;2022-12-18T03:31:22;-9.10;99.20
4809;DHT22;2418;49.930;8.606;2022-12-18T03:33:57;-9.10;99.20
4809;DHT22;2418;49.930;8.606;2022-12-18T03:36:24;-9.20;99.20
4809;DHT22;2418;49.930;8.606;2022-12-18T03:38:50;-9.20;99.20
4809;DHT22;2418;49.930;8.606;2022-12-18T03:41:36;-9.20;99.20
4809;DHT22;2418;49.930;8.606;2022-12-18T03:46:44;-9.20;99.20
4809;DHT22;2418;49.930;8.606;2022-12-18T03:51:53;-9.20;99.20
4809;DHT22;2418;49.930;8.606;2022-12-18T03:54:20;-9.30;99.20
4809;DHT22;2418;49.930;8.606;2022-12-18T03:56:52;-9.30;99.20
4809;DHT22;2418;49.930;8.606;2022-12-18T03:59:21;-9.40;99.20
4809;DHT22;2418;49.930;8.606;2022-12-18T04:01:49;-9.40;99.20
4809;DHT22;2418;49.930;8.606;2022-12-18T04:04:19;-9.40;99.20
4809;DHT22;2418;49.930;8.606;2022-12-18T04:06:46;-9.40;99.20
4809;DHT22;2418;49.930;8.606;2022-12-18T04:09:13;-9.40;99.20
4809;DHT22;2418;49.930;8.606;2022-12-18T04:11:41;-9.30;99.20
4809;DHT22;2418;49.930;8.606;2022-12-18T04:14:09;-9.20;99.20
4809;DHT22;2418;49.930;8.606;2022-12-18T04:16:34;-9.20;99.20
4809;DHT22;2418;49.930;8.606;2022-12-18T04:19:00;-9.10;99.20
4809;DHT22;2418;49.930;8.606;2022-12-18T04:21:26;-9.00;99.20
4809;DHT22;2418;49.930;8.606;2022-12-18T04:23:52;-8.90;99.20
4809;DHT22;2418;49.930;8.606;2022-12-18T04:26:18;-8.80;99.20
4809;DHT22;2418;49.930;8.606;2022-12-18T04:28:43;-8.70;99.20
4809;DHT22;2418;49.930;8.606;2022-12-18T04:31:09;-8.70;99.20
4809;DHT22;2418;49.930;8.606;2022-12-18T04:33:36;-8.60;99.20
4809;DHT22;2418;49.930;8.606;2022-12-18T04:36:02;-8.70;99.20
4809;DHT22;2418;49.930;8.606;2022-12-18T04:38:28;-8.70;99.20
4809;DHT22;2418;49.930;8.606;2022-12-18T04:40:53;-8.60;99.20
4809;DHT22;2418;49.930;8.606;2022-12-18T04:43:19;-8.70;99.20
4809;DHT22;2418;49.930;8.606;2022-12-18T04:45:45;-8.70;99.20
4809;DHT22;2418;49.930;8.606;2022-12-18T04:48:10;-8.70;99.20
4809;DHT22;2418;49.930;8.606;2022-12-18T04:50:36;-8.70;99.20
4809;DHT22;2418;49.930;8.606;2022-12-18T04:53:01;-8.70;99.20
4809;DHT22;2418;49.930;8.606;2022-12-18T04:55:28;-8.70;99.20
4809;DHT22;2418;49.930;8.606;2022-12-18T04:57:53;-8.60;99.20
4809;DHT22;2418;49.930;8.606;2022-12-18T05:00:19;-8.60;99.20
4809;DHT22;2418;49.930;8.606;2022-12-18T05:02:45;-8.50;99.20
4809;DHT22;2418;49.930;8.606;2022-12-18T05:05:10;-8.50;99.20
4809;DHT22;2418;49.930;8.606;2022-12-18T05:07:36;-8.40;99.20
4809;DHT22;2418;49.930;8.606;2022-12-18T05:10:02;-8.50;99.20
4809;DHT22;2418;49.930;8.606;2022-12-18T05:12:28;-8.40;99.20
4809;DHT22;2418;49.930;8.606;2022-12-18T05:14:53;-8.50;99.20
4809;DHT22;2418;49.930;8.606;2022-12-18T05:17:19;-8.50;99.20
4809;DHT22;2418;49.930;8.606;2022-12-18T05:19:45;-8.60;99.20
4809;DHT22;2418;49.930;8.606;2022-12-18T05:22:10;-8.70;99.20
4809;DHT22;2418;49.930;8.606;2022-12-18T05:24:36;-8.70;99.20
4809;DHT22;2418;49.930;8.606;2022-12-18T05:27:02;-8.80;99.20
4809;DHT22;2418;49.930;8.606;2022-12-18T05:29:28;-8.80;99.20
4809;DHT22;2418;49.930;8.606;2022-12-18T05:31:54;-8.80;99.20
4809;DHT22;2418;49.930;8.606;2022-12-18T05:34:20;-8.80;99.20
4809;DHT22;2418;49.930;8.606;2022-12-18T05:36:45;-8.80;99.20
4809;DHT22;2418;49.930;8.606;2022-12-18T05:39:11;-8.90;99.20
4809;DHT22;2418;49.930;8.606;2022-12-18T05:41:37;-8.90;99.20
4809;DHT22;2418;49.930;8.606;2022-12-18T05:44:02;-8.90;99.20
4809;DHT22;2418;49.930;8.606;2022-12-18T05:46:28;-9.00;99.20
4809;DHT22;2418;49.930;8.606;2022-12-18T05:48:54;-9.00;99.20
4809;DHT22;2418;49.930;8.606;2022-12-18T05:51:21;-9.00;99.20
4809;DHT22;2418;49.930;8.606;2022-12-18T05:53:48;-9.00;99.20
4809;DHT22;2418;49.930;8.606;2022-12-18T05:56:17;-9.10;99.20
4809;DHT22;2418;49.930;8.606;2022-12-18T05:58:43;-9.10;99.20
4809;DHT22;2418;49.930;8.606;2022-12-18T06:01:16;-9.10;99.20
4809;DHT22;2418;49.930;8.606;2022-12-18T06:03:43;-9.10;99.20
4809;DHT22;2418;49.930;8.606;2022-12-18T06:06:20;-9.10;99.20
4809;DHT22;2418;49.930;8.606;2022-12-18T06:08:46;-9.10;99.20
4809;DHT22;2418;49.930;8.606;2022-12-18T06:11:13;-9.00;99.20
4809;DHT22;2418;49.930;8.606;2022-12-18T06:13:39;-9.00;99.20
4809;DHT22;2418;49.930;8.606;2022-12-18T06:16:05;-9.00;99.20
4809;DHT22;2418;49.930;8.606;2022-12-18T06:18:31;-9.00;99.20
4809;DHT22;2418;49.930;8.606;2022-12-18T06:20:58;-9.00;99.20
4809;DHT22;2418;49.930;8.606;2022-12-18T06:23:24;-9.10;99.20
4809;DHT22;2418;49.930;8.606;2022-12-18T06:25:50;-9.20;99.20
4809;DHT22;2418;49.930;8.606;2022-12-18T06:28:16;-9.20;99.20
4809;DHT22;2418;49.930;8.606;2022-12-18T06:30:46;-9.20;99.20
4809;DHT22;2418;49.930;8.606;2022-12-18T06:33:12;-9.20;99.20
4809;DHT22;2418;49.930;8.606;2022-12-18T06:35:40;-9.20;99.20
4809;DHT22;2418;49.930;8.606;2022-12-18T06:38:05;-9.20;99.20
4809;DHT22;2418;49.930;8.606;2022-12-18T06:40:31;-9.20;99.20
4809;DHT22;2418;49.930;8.606;2022-12-18T06:42:57;-9.20;99.20
4809;DHT22;2418;49.930;8.606;2022-12-18T06:45:23;-9.20;99.20
4809;DHT22;2418;49.930;8.606;2022-12-18T06:47:49;-9.20;99.20
4809;DHT22;2418;49.930;8.606;2022-12-18T06:50:15;-9.20;99.20
4809;DHT22;2418;49.930;8.606;2022-12-18T06:52:40;-9.10;99.20
4809;DHT22;2418;49.930;8.606;2022-12-18T06:55:08;-9.20;99.20
4809;DHT22;2418;49.930;8.606;2022-12-18T06:57:33;-9.20;99.20
4809;DHT22;2418;49.930;8.606;2022-12-18T07:00:00;-9.20;99.20
4809;DHT22;2418;49.930;8.606;2022-12-18T07:02:26;-9.20;99.20
4809;DHT22;2418;49.930;8.606;2022-12-18T07:04:51;-9.30;99.20
4809;DHT22;2418;49.930;8.606;2022-12-18T07:07:17;-9.40;99.20
4809;DHT22;2418;49.930;8.606;2022-12-18T07:09:42;-9.50;99.20
4809;DHT22;2418;49.930;8.606;2022-12-18T07:12:08;-9.60;99.20
4809;DHT22;2418;49.930;8.606;2022-12-18T07:14:34;-9.60;99.20
4809;DHT22;2418;49.930;8.606;2022-12-18T07:17:00;-9.70;99.20
4809;DHT22;2418;49.930;8.606;2022-12-18T07:19:26;-9.70;99.20
4809;DHT22;2418;49.930;8.606;2022-12-18T07:21:52;-9.70;99.20
4809;DHT22;2418;49.930;8.606;2022-12-18T07:24:24;-9.70;99.20
4809;DHT22;2418;49.930;8.606;2022-12-18T07:26:50;-9.80;99.20
4809;DHT22;2418;49.930;8.606;2022-12-18T07:29:17;-9.80;99.20
4809;DHT22;2418;49.930;8.606;2022-12-18T07:31:43;-9.80;99.20
4809;DHT22;2418;49.930;8.606;2022-12-18T07:34:13;-9.80;99.20
4809;DHT22;2418;49.930;8.606;2022-12-18T07:36:39;-9.70;99.20
4809;DHT22;2418;49.930;8.606;2022-12-18T07:39:04;-9.70;99.20
4809;DHT22;2418;49.930;8.606;2022-12-18T07:41:31;-9.70;99.20
4809;DHT22;2418;49.930;8.606;2022-12-18T07:43:57;-9.70;99.20
4809;DHT22;2418;49.930;8.606;2022-12-18T07:46:22;-9.70;99.20
4809;DHT22;2418;49.930;8.606;2022-12-18T07:48:51;-9.80;99.20
4809;DHT22;2418;49.930;8.606;2022-12-18T07:51:17;-9.80;99.20
4809;DHT22;2418;49.930;8.606;2022-12-18T07:53:43;-9.80;99.20
4809;DHT22;2418;49.930;8.606;2022-12-18T07:56:11;-9.90;99.20
4809;DHT22;2418;49.930;8.606;2022-12-18T07:58:37;-9.90;99.20
4809;DHT22;2418;49.930;8.606;2022-12-18T08:01:08;-9.90;99.20
4809;DHT22;2418;49.930;8.606;2022-12-18T08:03:35;-9.80;99.20
4809;DHT22;2418;49.930;8.606;2022-12-18T08:06:02;-9.70;99.20
4809;DHT22;2418;49.930;8.606;2022-12-18T08:08:28;-9.60;99.20
4809;DHT22;2418;49.930;8.606;2022-12-18T08:10:54;-9.60;99.20
4809;DHT22;2418;49.930;8.606;2022-12-18T08:13:20;-9.70;99.20
4809;DHT22;2418;49.930;8.606;2022-12-18T08:15:46;-9.60;99.20
4809;DHT22;2418;49.930;8.606;2022-12-18T08:18:11;-9.60;99.20
4809;DHT22;2418;49.930;8.606;2022-12-18T08:20:37;-9.60;99.20
4809;DHT22;2418;49.930;8.606;2022-12-18T08:23:03;-9.60;99.20
4809;DHT22;2418;49.930;8.606;2022-12-18T08:25:28;-9.60;99.20
4809;DHT22;2418;49.930;8.606;2022-12-18T08:27:54;-9.50;99.20
4809;DHT22;2418;49.930;8.606;2022-12-18T08:30:21;-9.50;99.20
4809;DHT22;2418;49.930;8.606;2022-12-18T08:32:51;-9.60;99.20
4809;DHT22;2418;49.930;8.606;2022-12-18T08:35:18;-9.40;99.20
4809;DHT22;2418;49.930;8.606;2022-12-18T08:37:44;-9.40;99.20
4809;DHT22;2418;49.930;8.606;2022-12-18T08:40:10;-9.40;99.20
4809;DHT22;2418;49.930;8.606;2022-12-18T08:42:35;-9.40;99.20
4809;DHT22;2418;49.930;8.606;2022-12-18T08:45:19;-9.30;99.20
4809;DHT22;2418;49.930;8.606;2022-12-18T08:47:45;-9.20;99.20
4809;DHT22;2418;49.930;8.606;2022-12-18T08:50:11;-9.10;99.20
4809;DHT22;2418;49.930;8.606;2022-12-18T08:52:37;-9.00;99.20
4809;DHT22;2418;49.930;8.606;2022-12-18T08:55:03;-8.90;99.20
4809;DHT22;2418;49.930;8.606;2022-12-18T08:57:29;-8.90;99.20
4809;DHT22;2418;49.930;8.606;2022-12-18T08:59:55;-8.70;99.20
4809;DHT22;2418;49.930;8.606;2022-12-18T09:02:20;-8.60;99.20
4809;DHT22;2418;49.930;8.606;2022-12-18T09:04:49;-8.60;99.20
4809;DHT22;2418;49.930;8.606;2022-12-18T09:07:15;-8.50;99.20
4809;DHT22;2418;49.930;8.606;2022-12-18T09:09:40;-8.50;99.20
4809;DHT22;2418;49.930;8.606;2022-12-18T09:12:06;-8.40;99.20
4809;DHT22;2418;49.930;8.606;2022-12-18T09:14:31;-8.30;99.20
4809;DHT22;2418;49.930;8.606;2022-12-18T09:16:57;-8.30;99.20
4809;DHT22;2418;49.930;8.606;2022-12-18T09:19:23;-8.20;99.20
4809;DHT22;2418;49.930;8.606;2022-12-18T09:21:48;-8.10;99.20
4809;DHT22;2418;49.930;8.606;2022-12-18T09:24:15;-8.00;99.20
4809;DHT22;2418;49.930;8.606;2022-12-18T09:26:41;-7.70;99.20
4809;DHT22;2418;49.930;8.606;2022-12-18T09:29:07;-7.50;99.20
4809;DHT22;2418;49.930;8.606;2022-12-18T09:31:33;-7.30;99.20
4809;DHT22;2418;49.930;8.606;2022-12-18T09:33:59;-7.10;99.20
4809;DHT22;2418;49.930;8.606;2022-12-18T09:36:25;-7.10;99.20
4809;DHT22;2418;49.930;8.606;2022-12-18T09:38:50;-7.00;99.20
4809;DHT22;2418;49.930;8.606;2022-12-18T09:43:52;-7.00;99.20
4809;DHT22;2418;49.930;8.606;2022-12-18T09:46:23;-6.90;99.20
4809;DHT22;2418;49.930;8.606;2022-12-18T09:48:52;-6.70;99.20
4809;DHT22;2418;49.930;8.606;2022-12-18T09:51:28;-6.60;99.20
4809;DHT22;2418;49.930;8.606;2022-12-18T09:54:22;-6.50;99.20
4809;DHT22;2418;49.930;8.606;2022-12-18T09:56:47;-6.30;99.20
4809;DHT22;2418;49.930;8.606;2022-12-18T09:59:56;-6.20;99.20
4809;DHT22;2418;49.930;8.606;2022-12-18T10:02:26;-6.00;99.20
4809;DHT22;2418;49.930;8.606;2022-12-18T10:05:02;-5.90;99.20
4809;DHT22;2418;49.930;8.606;2022-12-18T10:10:41;-5.80;99.20
4809;DHT22;2418;49.930;8.606;2022-12-18T10:13:31;-5.70;99.20
4809;DHT22;2418;49.930;8.606;2022-12-18T10:16:09;-5.60;99.20
4809;DHT22;2418;49.930;8.606;2022-12-18T10:21:45;-5.20;99.20
4809;DHT22;2418;49.930;8.606;2022-12-18T10:26:41;-4.60;99.20
4809;DHT22;2418;49.930;8.606;2022-12-18T10:29:13;-4.60;99.20
4809;DHT22;2418;49.930;8.606;2022-12-18T10:31:40;-4.50;99.20
4809;DHT22;2418;49.930;8.606;2022-12-18T10:34:11;-4.40;99.20
4809;DHT22;2418;49.930;8.606;2022-12-18T10:36:37;-4.40;99.20
4809;DHT22;2418;49.930;8.606;2022-12-18T10:39:20;-4.40;99.20
4809;DHT22;2418;49.930;8.606;2022-12-18T10:41:48;-4.20;99.20
4809;DHT22;2418;49.930;8.606;2022-12-18T10:44:22;-4.20;99.20
4809;DHT22;2418;49.930;8.606;2022-12-18T10:46:54;-4.20;99.20
4809;DHT22;2418;49.930;8.606;2022-12-18T10:49:29;-4.10;99.20
4809;DHT22;2418;49.930;8.606;2022-12-18T10:54:39;-4.20;99.20
4809;DHT22;2418;49.930;8.606;2022-12-18T10:57:16;-4.00;99.20
4809;DHT22;2418;49.930;8.606;2022-12-18T10:59:53;-4.00;99.20
4809;DHT22;2418;49.930;8.606;2022-12-18T11:02:35;-4.00;99.20
4809;DHT22;2418;49.930;8.606;2022-12-18T11:05:02;-4.00;99.20
4809;DHT22;2418;49.930;8.606;2022-12-18T11:07:48;-3.90;99.20
4809;DHT22;2418;49.930;8.606;2022-12-18T11:10:19;-3.90;99.20
4809;DHT22;2418;49.930;8.606;2022-12-18T11:12:45;-3.80;99.20
4809;DHT22;2418;49.930;8.606;2022-12-18T11:15:25;-3.60;99.20
4809;DHT22;2418;49.930;8.606;2022-12-18T11:17:52;-3.50;99.20
4809;DHT22;2418;49.930;8.606;2022-12-18T11:20:35;-3.40;99.20
4809;DHT22;2418;49.930;8.606;2022-12-18T11:23:04;-3.20;99.20
4809;DHT22;2418;49.930;8.606;2022-12-18T11:25:32;-3.20;99.20
4809;DHT22;2418;49.930;8.606;2022-12-18T11:28:01;-3.10;99.20
4809;DHT22;2418;49.930;8.606;2022-12-18T11:30:38;-3.30;99.20
4809;DHT22;2418;49.930;8.606;2022-12-18T11:33:15;-3.20;99.20
4809;DHT22;2418;49.930;8.606;2022-12-18T11:38:23;-3.10;99.20
4809;DHT22;2418;49.930;8.606;2022-12-18T11:41:06;-3.10;99.20
4809;DHT22;2418;49.930;8.606;2022-12-18T11:43:43;-3.00;99.20
4809;DHT22;2418;49.930;8.606;2022-12-18T11:46:34;-2.80;99.20
4809;DHT22;2418;49.930;8.606;2022-12-18T11:49:11;-2.70;99.20
4809;DHT22;2418;49.930;8.606;2022-12-18T11:51:50;-2.60;99.20
4809;DHT22;2418;49.930;8.606;2022-12-18T11:54:17;-2.50;99.20
4809;DHT22;2418;49.930;8.606;2022-12-18T11:56:58;-2.40;99.20
4809;DHT22;2418;49.930;8.606;2022-12-18T11:59:46;-2.30;99.20
4809;DHT22;2418;49.930;8.606;2022-12-18T12:02:27;-2.20;99.20
4809;DHT22;2418;49.930;8.606;2022-12-18T12:05:39;-2.20;99.20
4809;DHT22;2418;49.930;8.606;2022-12-18T12:08:51;-2.10;99.20
4809;DHT22;2418;49.930;8.606;2022-12-18T12:11:35;-2.10;99.20
4809;DHT22;2418;49.930;8.606;2022-12-18T12:14:07;-2.30;99.20
4809;DHT22;2418;49.930;8.606;2022-12-18T12:19:25;-2.10;99.20
4809;DHT22;2418;49.930;8.606;2022-12-18T12:28:09;-2.20;99.20
4809;DHT22;2418;49.930;8.606;2022-12-18T12:36:37;-2.00;99.20
4809;DHT22;2418;49.930;8.606;2022-12-18T12:39:10;-2.00;99.20
4809;DHT22;2418;49.930;8.606;2022-12-18T12:41:39;-2.10;99.20
4809;DHT22;2418;49.930;8.606;2022-12-18T12:44:32;-2.10;99.20
4809;DHT22;2418;49.930;8.606;2022-12-18T12:47:04;-2.10;99.20
4809;DHT22;2418;49.930;8.606;2022-12-18T12:49:33;-2.10;99.20
4809;DHT22;2418;49.930;8.606;2022-12-18T12:55:06;-2.00;99.20
4809;DHT22;2418;49.930;8.606;2022-12-18T12:57:41;-1.90;99.20
4809;DHT22;2418;49.930;8.606;2022-12-18T13:00:14;-1.90;99.20
4809;DHT22;2418;49.930;8.606;2022-12-18T13:03:12;-1.90;99.20
4809;DHT22;2418;49.930;8.606;2022-12-18T13:05:46;-2.00;99.20
4809;DHT22;2418;49.930;8.606;2022-12-18T13:08:26;-2.00;99.20
4809;DHT22;2418;49.930;8.606;2022-12-18T13:10:53;-2.00;99.20
4809;DHT22;2418;49.930;8.606;2022-12-18T13:13:51;-2.00;99.20
4809;DHT22;2418;49.930;8.606;2022-12-18T13:16:20;-2.00;99.20
4809;DHT22;2418;49.930;8.606;2022-12-18T13:18:55;-1.90;99.20
4809;DHT22;2418;49.930;8.606;2022-12-18T13:21:24;-1.90;99.20
4809;DHT22;2418;49.930;8.606;2022-12-18T13:23:53;-1.90;99.20
4809;DHT22;2418;49.930;8.606;2022-12-18T13:34:25;-2.30;99.20
4809;DHT22;2418;49.930;8.606;2022-12-18T13:36:53;-2.40;99.20
4809;DHT22;2418;49.930;8.606;2022-12-18T13:41:50;-2.20;99.20
4809;DHT22;2418;49.930;8.606;2022-12-18T13:44:32;-2.20;99.20
4809;DHT22;2418;49.930;8.606;2022-12-18T13:46:59;-2.20;99.20
4809;DHT22;2418;49.930;8.606;2022-12-18T13:49:40;-2.20;99.20
4809;DHT22;2418;49.930;8.606;2022-12-18T13:52:33;-2.20;99.20
4809;DHT22;2418;49.930;8.606;2022-12-18T13:55:02;-2.30;99.20
4809;DHT22;2418;49.930;8.606;2022-12-18T13:57:37;-2.30;99.20
4809;DHT22;2418;49.930;8.606;2022-12-18T14:02:48;-2.40;99.20
4809;DHT22;2418;49.930;8.606;2022-12-18T14:07:51;-2.40;99.20
4809;DHT22;2418;49.930;8.606;2022-12-18T14:10:17;-2.50;99.20
4809;DHT22;2418;49.930;8.606;2022-12-18T14:12:47;-2.50;99.20
4809;DHT22;2418;49.930;8.606;2022-12-18T14:18:01;-2.60;99.20
4809;DHT22;2418;49.930;8.606;2022-12-18T14:20:30;-2.60;99.20
4809;DHT22;2418;49.930;8.606;2022-12-18T14:22:56;-2.60;99.20
4809;DHT22;2418;49.930;8.606;2022-12-18T14:25:25;-2.70;99.20
4809;DHT22;2418;49.930;8.606;2022-12-18T14:27:59;-2.70;99.20
4809;DHT22;2418;49.930;8.606;2022-12-18T14:35:35;-2.70;99.20
4809;DHT22;2418;49.930;8.606;2022-12-18T14:40:46;-2.80;99.20
4809;DHT22;2418;49.930;8.606;2022-12-18T14:43:12;-2.80;99.20
4809;DHT22;2418;49.930;8.606;2022-12-18T14:45:43;-2.90;99.20
4809;DHT22;2418;49.930;8.606;2022-12-18T14:48:24;-3.00;99.20
4809;DHT22;2418;49.930;8.606;2022-12-18T14:51:18;-3.00;99.20
4809;DHT22;2418;49.930;8.606;2022-12-18T14:54:01;-3.10;99.20
4809;DHT22;2418;49.930;8.606;2022-12-18T14:56:32;-3.10;99.20
4809;DHT22;2418;49.930;8.606;2022-12-18T14:59:20;-3.10;99.20
4809;DHT22;2418;49.930;8.606;2022-12-18T15:02:01;-3.20;99.20
4809;DHT22;2418;49.930;8.606;2022-12-18T15:09:30;-3.30;99.20
4809;DHT22;2418;49.930;8.606;2022-12-18T15:11:58;-3.40;99.20
4809;DHT22;2418;49.930;8.606;2022-12-18T15:17:16;-3.40;99.20
4809;DHT22;2418;49.930;8.606;2022-12-18T15:19:43;-3.50;99.20
4809;DHT22;2418;49.930;8.606;2022-12-18T15:22:20;-3.50;99.20
4809;DHT22;2418;49.930;8.606;2022-12-18T15:24:46;-3.50;99.20
4809;DHT22;2418;49.930;8.606;2022-12-18T15:27:28;-3.60;99.20
4809;DHT22;2418;49.930;8.606;2022-12-18T15:30:11;-3.50;99.20
4809;DHT22;2418;49.930;8.606;2022-12-18T15:32:40;-3.50;99.20
4809;DHT22;2418;49.930;8.606;2022-12-18T15:37:41;-3.50;99.20
4809;DHT22;2418;49.930;8.606;2022-12-18T15:40:11;-3.50;99.20
4809;DHT22;2418;49.930;8.606;2022-12-18T15:42:37;-3.60;99.20
4809;DHT22;2418;49.930;8.606;2022-12-18T15:45:21;-3.60;99.20
4809;DHT22;2418;49.930;8.606;2022-12-18T15:47:47;-3.60;99.20
4809;DHT22;2418;49.930;8.606;2022-12-18T15:50:12;-3.60;99.20
4809;DHT22;2418;49.930;8.606;2022-12-18T15:52:46;-3.60;99.20
4809;DHT22;2418;49.930;8.606;2022-12-18T15:55:19;-3.70;99.20
4809;DHT22;2418;49.930;8.606;2022-12-18T15:58:05;-3.60;99.20
4809;DHT22;2418;49.930;8.606;2022-12-18T16:00:32;-3.60;99.20
4809;DHT22;2418;49.930;8.606;2022-12-18T16:02:59;-3.60;99.20
4809;DHT22;2418;49.930;8.606;2022-12-18T16:05:26;-3.60;99.20
4809;DHT22;2418;49.930;8.606;2022-12-18T16:07:52;-3.70;99.20
4809;DHT22;2418;49.930;8.606;2022-12-18T16:10:19;-3.70;99.20
4809;DHT22;2418;49.930;8.606;2022-12-18T16:12:45;-3.60;99.20
4809;DHT22;2418;49.930;8.606;2022-12-18T16:15:13;-3.70;99.20
4809;DHT22;2418;49.930;8.606;2022-12-18T16:17:40;-3.70;99.20
4809;DHT22;2418;49.930;8.606;2022-12-18T16:20:13;-3.70;99.20
4809;DHT22;2418;49.930;8.606;2022-12-18T16:22:41;-3.60;99.20
4809;DHT22;2418;49.930;8.606;2022-12-18T16:25:19;-3.70;99.20
4809;DHT22;2418;49.930;8.606;2022-12-18T16:27:45;-3.70;99.20
4809;DHT22;2418;49.930;8.606;2022-12-18T16:30:19;-3.60;99.20
4809;DHT22;2418;49.930;8.606;2022-12-18T16:32:45;-3.60;99.20
4809;DHT22;2418;49.930;8.606;2022-12-18T16:35:12;-3.60;99.20
4809;DHT22;2418;49.930;8.606;2022-12-18T16:37:39;-3.70;99.20
4809;DHT22;2418;49.930;8.606;2022-12-18T16:40:07;-3.60;99.20
4809;DHT22;2418;49.930;8.606;2022-12-18T16:42:35;-3.60;99.20
4809;DHT22;2418;49.930;8.606;2022-12-18T16:45:01;-3.60;99.20
4809;DHT22;2418;49.930;8.606;2022-12-18T16:47:26;-3.60;99.20
4809;DHT22;2418;49.930;8.606;2022-12-18T16:49:52;-3.60;99.20
4809;DHT22;2418;49.930;8.606;2022-12-18T16:52:18;-3.60;99.20
4809;DHT22;2418;49.930;8.606;2022-12-18T16:54:44;-3.70;99.20
4809;DHT22;2418;49.930;8.606;2022-12-18T16:57:13;-3.70;99.20
4809;DHT22;2418;49.930;8.606;2022-12-18T16:59:39;-3.60;99.20
4809;DHT22;2418;49.930;8.606;2022-12-18T17:02:05;-3.60;99.20
4809;DHT22;2418;49.930;8.606;2022-12-18T17:04:31;-3.60;99.20
4809;DHT22;2418;49.930;8.606;2022-12-18T17:06:56;-3.60;99.20
4809;DHT22;2418;49.930;8.606;2022-12-18T17:09:22;-3.70;99.20
4809;DHT22;2418;49.930;8.606;2022-12-18T17:11:51;-3.60;99.20
4809;DHT22;2418;49.930;8.606;2022-12-18T17:14:19;-3.60;99.20
4809;DHT22;2418;49.930;8.606;2022-12-18T17:16:46;-3.60;99.20
4809;DHT22;2418;49.930;8.606;2022-12-18T17:19:12;-3.60;99.20
4809;DHT22;2418;49.930;8.606;2022-12-18T17:21:38;-3.60;99.20
4809;DHT22;2418;49.930;8.606;2022-12-18T17:24:04;-3.60;99.20
4809;DHT22;2418;49.930;8.606;2022-12-18T17:26:30;-3.60;99.20
4809;DHT22;2418;49.930;8.606;2022-12-18T17:28:57;-3.50;99.20
4809;DHT22;2418;49.930;8.606;2022-12-18T17:31:24;-3.60;99.20
4809;DHT22;2418;49.930;8.606;2022-12-18T17:33:50;-3.60;99.20
4809;DHT22;2418;49.930;8.606;2022-12-18T17:36:17;-3.60;99.20
4809;DHT22;2418;49.930;8.606;2022-12-18T17:38:49;-3.50;99.20
4809;DHT22;2418;49.930;8.606;2022-12-18T17:41:15;-3.50;99.20
4809;DHT22;2418;49.930;8.606;2022-12-18T17:43:41;-3.50;99.20
4809;DHT22;2418;49.930;8.606;2022-12-18T17:46:12;-3.50;99.20
4809;DHT22;2418;49.930;8.606;2022-12-18T17:48:38;-3.50;99.20
4809;DHT22;2418;49.930;8.606;2022-12-18T17:51:06;-3.50;99.20
4809;DHT22;2418;49.930;8.606;2022-12-18T17:53:32;-3.50;99.20
4809;DHT22;2418;49.930;8.606;2022-12-18T17:55:59;-3.50;99.20